Time;durP1;ratioP1;P1;durP2;ratioP2;P2;SDS_P1;SDS_P2;PMS_P1;PMS_P2;Temp;Humidity;BMP_temperature;BMP_pressure;BME280_temperature;BME280_humidity;BME280_pressure;Samples;Min_cycle;Max_cycle;Signal;HPM_P1;HPM_P2
2024/02/17 00:00:22;;;;;;;31.53;13.40;;;;;;;;;;4992460;28;20373;-69
2024/02/17 00:02:47;;;;;;;30.25;11.48;;;;;;;;;;4993374;28;20098;-69
2024/02/17 00:05:12;;;;;;;29.40;12.10;;;;;;;;;;4992210;28;20018;-69
2024/02/17 00:07:37;;;;;;;24.37;10.27;;;;;;;;;;4991703;28;20026;-69
2024/02/17 00:10:03;;;;;;;26.30;10.77;;;;;;;;;;4993042;28;20372;-69
2024/02/17 00:12:28;;;;;;;28.20;11.90;;;;;;;;;;4992302;28;20351;-69
2024/02/17 00:14:54;;;;;;;27.52;12.98;;;;;;;;;;4991916;28;20045;-69
2024/02/17 00:17:19;;;;;;;29.05;11.75;;;;;;;;;;4992135;28;20018;-69
2024/02/17 00:19:46;;;;;;;28.70;10.20;;;;;;;;;;4991946;28;20022;-69
2024/02/17 00:22:11;;;;;;;28.77;12.45;;;;;;;;;;4989117;28;20508;-69
2024/02/17 00:24:36;;;;;;;28.95;12.60;;;;;;;;;;4983422;28;20129;-69
2024/02/17 00:27:02;;;;;;;28.33;11.63;;;;;;;;;;4991249;28;20097;-69
2024/02/17 00:29:27;;;;;;;29.70;10.77;;;;;;;;;;4992051;28;20026;-69
2024/02/17 00:31:52;;;;;;;22.48;11.18;;;;;;;;;;4991321;28;20073;-69
2024/02/17 00:34:18;;;;;;;29.23;11.77;;;;;;;;;;4991727;28;20030;-69
2024/02/17 00:36:43;;;;;;;34.20;13.70;;;;;;;;;;4992367;28;20014;-69
2024/02/17 00:39:09;;;;;;;30.35;14.07;;;;;;;;;;4990851;28;20504;-69
2024/02/17 00:41:35;;;;;;;27.35;12.25;;;;;;;;;;4991881;28;20087;-69
2024/02/17 00:44:00;;;;;;;29.35;11.98;;;;;;;;;;4991351;28;20353;-69
2024/02/17 00:46:25;;;;;;;30.97;12.13;;;;;;;;;;4991616;28;20037;-69
2024/02/17 00:48:50;;;;;;;26.80;11.93;;;;;;;;;;4991812;28;20357;-69
2024/02/17 00:51:15;;;;;;;33.40;12.57;;;;;;;;;;4991055;28;20265;-69
2024/02/17 00:53:44;;;;;;;34.57;14.13;;;;;;;;;;4991686;28;20022;-69
2024/02/17 00:56:09;;;;;;;29.42;12.07;;;;;;;;;;4991195;28;20268;-69
2024/02/17 00:58:34;;;;;;;31.35;13.10;;;;;;;;;;4991994;28;20400;-69
2024/02/17 01:01:00;;;;;;;26.85;12.80;;;;;;;;;;4991839;28;20593;-69
2024/02/17 01:03:25;;;;;;;31.33;14.52;;;;;;;;;;4991123;28;20033;-69
2024/02/17 01:05:50;;;;;;;37.60;13.37;;;;;;;;;;4992031;28;20034;-69
2024/02/17 01:08:15;;;;;;;30.92;11.98;;;;;;;;;;4991892;28;20925;-69
2024/02/17 01:10:41;;;;;;;36.30;12.85;;;;;;;;;;4992130;28;20433;-69
2024/02/17 01:13:07;;;;;;;40.67;14.35;;;;;;;;;;4991717;28;20029;-69
2024/02/17 01:15:32;;;;;;;34.25;15.57;;;;;;;;;;4990819;28;20034;-69
2024/02/17 01:17:57;;;;;;;37.33;15.70;;;;;;;;;;4991867;28;20018;-69
2024/02/17 01:20:22;;;;;;;33.50;14.90;;;;;;;;;;4989590;28;20722;-69
2024/02/17 01:22:47;;;;;;;44.27;15.80;;;;;;;;;;4989831;28;20018;-69
2024/02/17 01:25:12;;;;;;;37.67;16.13;;;;;;;;;;4989317;28;20827;-69
2024/02/17 01:27:38;;;;;;;45.53;17.65;;;;;;;;;;4989387;28;20328;-69
2024/02/17 01:30:04;;;;;;;34.42;15.73;;;;;;;;;;4989668;28;20030;-68
2024/02/17 01:32:29;;;;;;;48.60;19.13;;;;;;;;;;4987882;28;20014;-69
2024/02/17 01:34:54;;;;;;;43.87;16.83;;;;;;;;;;4987692;28;20365;-69
2024/02/17 01:37:19;;;;;;;49.33;19.52;;;;;;;;;;4988726;28;20037;-69
2024/02/17 01:39:44;;;;;;;41.00;18.57;;;;;;;;;;4989475;28;20038;-69
2024/02/17 01:42:10;;;;;;;48.27;18.43;;;;;;;;;;4989474;28;20748;-69
2024/02/17 01:44:35;;;;;;;43.55;19.40;;;;;;;;;;4988556;28;20285;-69
2024/02/17 01:47:01;;;;;;;47.90;17.73;;;;;;;;;;4988448;28;20030;-69
2024/02/17 01:49:26;;;;;;;42.47;16.80;;;;;;;;;;4987915;28;20026;-69
2024/02/17 01:51:51;;;;;;;52.03;19.58;;;;;;;;;;4991016;28;20792;-69
2024/02/17 01:54:17;;;;;;;50.78;18.25;;;;;;;;;;4984176;28;20495;-69
2024/02/17 01:56:43;;;;;;;49.05;18.33;;;;;;;;;;4985495;28;20465;-69
2024/02/17 01:59:08;;;;;;;45.22;19.05;;;;;;;;;;4988012;28;20027;-69
2024/02/17 02:01:33;;;;;;;40.60;17.25;;;;;;;;;;4990346;28;20030;-69
2024/02/17 02:03:58;;;;;;;44.67;17.77;;;;;;;;;;4990762;28;20397;-69
2024/02/17 02:06:24;;;;;;;46.75;17.73;;;;;;;;;;4990690;28;20026;-69
2024/02/17 02:08:49;;;;;;;45.13;21.75;;;;;;;;;;4990425;28;20030;-69
2024/02/17 02:11:15;;;;;;;44.85;18.67;;;;;;;;;;4990970;28;20487;-69
2024/02/17 02:13:40;;;;;;;45.00;17.52;;;;;;;;;;4990182;28;20030;-69
2024/02/17 02:16:05;;;;;;;40.53;17.97;;;;;;;;;;4990756;28;20013;-69
2024/02/17 02:18:31;;;;;;;45.10;18.95;;;;;;;;;;4990275;28;20336;-69
2024/02/17 02:20:56;;;;;;;46.90;18.80;;;;;;;;;;4990605;28;20109;-69
2024/02/17 02:23:21;;;;;;;43.53;19.33;;;;;;;;;;4990487;28;20030;-69
2024/02/17 02:25:55;;;;;;;42.97;18.33;;;;;;;;;;4990288;28;20360;-69
2024/02/17 02:28:21;;;;;;;37.47;16.23;;;;;;;;;;4990172;28;20081;-69
2024/02/17 02:30:46;;;;;;;46.60;16.98;;;;;;;;;;4990324;28;20042;-69
2024/02/17 02:33:11;;;;;;;51.83;17.17;;;;;;;;;;4990389;28;20029;-69
2024/02/17 02:35:37;;;;;;;52.67;18.48;;;;;;;;;;4990291;28;20751;-69
2024/02/17 02:38:02;;;;;;;39.08;17.55;;;;;;;;;;4989977;28;20029;-69
2024/02/17 02:40:28;;;;;;;48.03;17.45;;;;;;;;;;4990451;28;20010;-69
2024/02/17 02:42:53;;;;;;;43.78;18.02;;;;;;;;;;4989552;28;20072;-69
2024/02/17 02:45:18;;;;;;;40.13;18.40;;;;;;;;;;4989680;28;20397;-69
2024/02/17 02:47:43;;;;;;;39.67;18.73;;;;;;;;;;4989333;28;20360;-69
2024/02/17 02:50:10;;;;;;;41.10;17.58;;;;;;;;;;4989840;28;20281;-69
2024/02/17 02:52:35;;;;;;;51.92;17.73;;;;;;;;;;4989929;28;20018;-69
2024/02/17 02:55:01;;;;;;;46.13;16.70;;;;;;;;;;4989421;28;20034;-69
2024/02/17 02:57:26;;;;;;;39.90;16.13;;;;;;;;;;4989861;28;20264;-69
2024/02/17 02:59:51;;;;;;;52.37;18.77;;;;;;;;;;4989767;28;20344;-69
2024/02/17 03:02:16;;;;;;;54.92;18.00;;;;;;;;;;4989416;28;20281;-69
2024/02/17 03:04:41;;;;;;;50.25;17.73;;;;;;;;;;4989144;28;20105;-69
2024/02/17 03:07:07;;;;;;;39.10;17.20;;;;;;;;;;4989520;28;20041;-69
2024/02/17 03:09:32;;;;;;;43.13;18.77;;;;;;;;;;4989989;28;20285;-69
2024/02/17 03:11:57;;;;;;;46.13;17.70;;;;;;;;;;4990214;28;20262;-69
2024/02/17 03:14:22;;;;;;;46.92;18.70;;;;;;;;;;4988866;28;20264;-69
2024/02/17 03:16:47;;;;;;;45.10;17.85;;;;;;;;;;4987912;28;20030;-69
2024/02/17 03:19:13;;;;;;;47.97;18.73;;;;;;;;;;4985542;28;20018;-69
2024/02/17 03:21:41;;;;;;;41.43;16.37;;;;;;;;;;4993618;28;20045;-69
2024/02/17 03:24:06;;;;;;;50.50;18.58;;;;;;;;;;4991059;28;20276;-69
2024/02/17 03:26:31;;;;;;;38.17;16.92;;;;;;;;;;4993625;28;20397;-69
2024/02/17 03:28:56;;;;;;;42.00;16.43;;;;;;;;;;4993563;28;20026;-69
2024/02/17 03:31:23;;;;;;;47.23;17.90;;;;;;;;;;4993028;28;20372;-69
2024/02/17 03:33:50;;;;;;;40.30;16.17;;;;;;;;;;4993457;28;20285;-69
2024/02/17 03:36:15;;;;;;;46.72;16.52;;;;;;;;;;4993242;28;20021;-69
2024/02/17 03:38:40;;;;;;;39.27;16.60;;;;;;;;;;4993945;28;20034;-69
2024/02/17 03:41:06;;;;;;;47.97;18.47;;;;;;;;;;4993645;28;20273;-69
2024/02/17 03:43:31;;;;;;;52.50;16.77;;;;;;;;;;4992539;28;20274;-69
2024/02/17 03:45:56;;;;;;;46.97;17.13;;;;;;;;;;4992247;28;20344;-69
2024/02/17 03:48:21;;;;;;;34.08;16.40;;;;;;;;;;4992937;28;20356;-69
2024/02/17 03:50:50;;;;;;;47.55;18.23;;;;;;;;;;4993611;28;20018;-69
2024/02/17 03:53:15;;;;;;;38.65;15.90;;;;;;;;;;4993256;28;20424;-69
2024/02/17 03:55:40;;;;;;;43.17;17.77;;;;;;;;;;4993258;28;20026;-69
2024/02/17 03:58:05;;;;;;;41.47;16.37;;;;;;;;;;4992525;28;20030;-69
2024/02/17 04:00:30;;;;;;;42.00;18.20;;;;;;;;;;4993414;28;20277;-69
2024/02/17 04:02:56;;;;;;;51.23;17.53;;;;;;;;;;4993258;28;20285;-69
2024/02/17 04:05:21;;;;;;;34.22;15.85;;;;;;;;;;4993074;28;20269;-69
2024/02/17 04:07:46;;;;;;;56.03;16.23;;;;;;;;;;4993291;28;20489;-69
2024/02/17 04:10:11;;;;;;;39.77;15.07;;;;;;;;;;4993215;28;20281;-69
2024/02/17 04:12:37;;;;;;;33.00;14.98;;;;;;;;;;4991948;28;20638;-68
2024/02/17 04:15:04;;;;;;;40.70;14.52;;;;;;;;;;4992799;28;20089;-69
2024/02/17 04:17:29;;;;;;;37.92;15.05;;;;;;;;;;4986464;28;20073;-69
2024/02/17 04:19:54;;;;;;;38.73;14.90;;;;;;;;;;4992907;28;20562;-69
2024/02/17 04:22:19;;;;;;;35.30;13.60;;;;;;;;;;4993046;28;20253;-69
2024/02/17 04:24:45;;;;;;;50.22;15.30;;;;;;;;;;4992489;28;20262;-69
2024/02/17 04:27:10;;;;;;;42.28;14.55;;;;;;;;;;4991694;28;20019;-69
2024/02/17 04:29:35;;;;;;;32.45;12.27;;;;;;;;;;4991892;28;20038;-69
2024/02/17 04:32:00;;;;;;;33.73;13.07;;;;;;;;;;4992102;28;20032;-69
2024/02/17 04:34:26;;;;;;;40.60;12.83;;;;;;;;;;4992546;28;20261;-68
2024/02/17 04:36:51;;;;;;;39.40;13.37;;;;;;;;;;4992382;28;20344;-69
2024/02/17 04:39:16;;;;;;;39.13;13.02;;;;;;;;;;4992523;28;20304;-69
2024/02/17 04:41:42;;;;;;;34.55;14.25;;;;;;;;;;4991768;28;20473;-69
2024/02/17 04:44:07;;;;;;;31.70;13.40;;;;;;;;;;4992282;28;20446;-69
2024/02/17 04:46:32;;;;;;;35.17;13.07;;;;;;;;;;4992173;28;20030;-69
2024/02/17 04:48:57;;;;;;;34.60;15.77;;;;;;;;;;4992172;28;20352;-69
2024/02/17 04:51:22;;;;;;;38.83;13.90;;;;;;;;;;4992742;28;20345;-69
2024/02/17 04:53:48;;;;;;;37.00;13.23;;;;;;;;;;4991408;28;20289;-69
2024/02/17 04:56:13;;;;;;;37.58;13.38;;;;;;;;;;4991458;28;20368;-69
2024/02/17 04:58:39;;;;;;;36.08;14.48;;;;;;;;;;4992413;28;20038;-69
2024/02/17 05:01:07;;;;;;;34.15;13.75;;;;;;;;;;4991745;28;20022;-69
2024/02/17 05:03:32;;;;;;;40.17;13.57;;;;;;;;;;4985331;28;20465;-68
2024/02/17 05:05:58;;;;;;;38.33;12.77;;;;;;;;;;4991494;28;20042;-69
2024/02/17 05:08:23;;;;;;;27.67;11.60;;;;;;;;;;4991018;28;20289;-69
2024/02/17 05:10:48;;;;;;;38.58;11.98;;;;;;;;;;4991775;28;20268;-69
2024/02/17 05:13:14;;;;;;;34.53;14.37;;;;;;;;;;4991945;28;20026;-69
2024/02/17 05:15:39;;;;;;;26.10;13.27;;;;;;;;;;4992065;28;20764;-69
2024/02/17 05:18:04;;;;;;;35.23;11.73;;;;;;;;;;4991332;28;20115;-69
2024/02/17 05:20:29;;;;;;;33.35;13.45;;;;;;;;;;4991873;28;20442;-69
2024/02/17 05:22:54;;;;;;;35.45;12.77;;;;;;;;;;4990953;28;20449;-69
2024/02/17 05:25:20;;;;;;;27.93;12.03;;;;;;;;;;4991430;28;20188;-69
2024/02/17 05:27:45;;;;;;;30.73;13.57;;;;;;;;;;4988714;28;20246;-69
2024/02/17 05:30:13;;;;;;;33.67;14.05;;;;;;;;;;4990805;28;20022;-69
2024/02/17 05:32:39;;;;;;;48.80;17.27;;;;;;;;;;4989742;28;20023;-69
2024/02/17 05:35:04;;;;;;;31.30;12.77;;;;;;;;;;4989218;28;20022;-69
2024/02/17 05:37:29;;;;;;;35.55;13.82;;;;;;;;;;4989328;28;20010;-69
2024/02/17 05:39:55;;;;;;;37.22;16.35;;;;;;;;;;4988931;28;20022;-69
2024/02/17 05:42:20;;;;;;;37.47;16.00;;;;;;;;;;4990902;28;20045;-69
2024/02/17 05:44:45;;;;;;;33.57;13.23;;;;;;;;;;4990665;28;20265;-69
2024/02/17 05:47:11;;;;;;;38.00;12.88;;;;;;;;;;4985630;28;21461;-68
2024/02/17 05:49:36;;;;;;;30.45;12.85;;;;;;;;;;4988424;28;20026;-69
2024/02/17 05:52:01;;;;;;;32.60;14.00;;;;;;;;;;4990461;28;20041;-69
2024/02/17 05:54:26;;;;;;;44.80;13.77;;;;;;;;;;4991247;28;20261;-69
2024/02/17 05:56:51;;;;;;;32.87;13.30;;;;;;;;;;4990738;28;20282;-69
2024/02/17 05:59:17;;;;;;;36.33;13.60;;;;;;;;;;4991351;28;20262;-69
2024/02/17 06:01:42;;;;;;;42.67;13.85;;;;;;;;;;4990135;28;20270;-69
2024/02/17 06:04:08;;;;;;;28.58;13.82;;;;;;;;;;4988152;28;20477;-69
2024/02/17 06:06:33;;;;;;;33.55;13.90;;;;;;;;;;4990715;28;20385;-69
2024/02/17 06:08:58;;;;;;;38.78;12.25;;;;;;;;;;4990616;28;20058;-68
2024/02/17 06:11:24;;;;;;;31.70;13.17;;;;;;;;;;4991058;28;20492;-69
2024/02/17 06:13:49;;;;;;;36.55;12.63;;;;;;;;;;4990616;28;20257;-69
2024/02/17 06:16:14;;;;;;;31.60;12.50;;;;;;;;;;4989973;28;20032;-69
2024/02/17 06:21:23;;;;;;;36.45;13.18;;;;;;;;;;4990542;28;20409;-69
2024/02/17 06:23:49;;;;;;;46.17;13.55;;;;;;;;;;4990531;28;20030;-69
2024/02/17 06:26:21;;;;;;;33.92;13.90;;;;;;;;;;4990464;28;20037;-69
2024/02/17 06:28:46;;;;;;;32.42;12.57;;;;;;;;;;4989843;28;20029;-69
2024/02/17 06:31:12;;;;;;;30.95;13.70;;;;;;;;;;4990667;28;20018;-68
2024/02/17 06:33:37;;;;;;;39.37;15.73;;;;;;;;;;4989744;28;20425;-69
2024/02/17 06:36:02;;;;;;;36.57;13.07;;;;;;;;;;4989516;28;20277;-69
2024/02/17 06:38:27;;;;;;;34.17;14.68;;;;;;;;;;4989887;28;20363;-69
2024/02/17 06:40:52;;;;;;;39.10;16.80;;;;;;;;;;4990506;28;20026;-68
2024/02/17 06:43:18;;;;;;;40.63;14.97;;;;;;;;;;4989659;28;20034;-69
2024/02/17 06:45:43;;;;;;;34.97;13.90;;;;;;;;;;4990066;28;20647;-69
2024/02/17 06:48:08;;;;;;;35.38;14.73;;;;;;;;;;4985957;28;20038;-68
2024/02/17 06:50:34;;;;;;;42.47;18.80;;;;;;;;;;4989835;28;20034;-69
2024/02/17 06:52:59;;;;;;;46.75;18.75;;;;;;;;;;4988412;28;20320;-69
2024/02/17 06:55:24;;;;;;;33.83;15.70;;;;;;;;;;4989792;28;20022;-69
2024/02/17 06:57:51;;;;;;;33.40;15.33;;;;;;;;;;4986660;28;20280;-68
2024/02/17 07:00:18;;;;;;;40.10;14.95;;;;;;;;;;4986939;28;20337;-68
2024/02/17 07:02:43;;;;;;;38.88;15.05;;;;;;;;;;4987903;28;20522;-68
2024/02/17 07:05:08;;;;;;;34.93;16.13;;;;;;;;;;4988603;28;20030;-68
2024/02/17 07:07:34;;;;;;;39.88;14.75;;;;;;;;;;4987498;28;20295;-68
2024/02/17 07:10:03;;;;;;;32.77;14.43;;;;;;;;;;4989293;28;20303;-68
2024/02/17 07:12:31;;;;;;;36.55;15.18;;;;;;;;;;4988401;28;20343;-68
2024/02/17 07:14:56;;;;;;;36.40;14.02;;;;;;;;;;4988856;28;20037;-68
2024/02/17 07:17:21;;;;;;;33.63;13.53;;;;;;;;;;4988521;28;20022;-68
2024/02/17 07:19:46;;;;;;;46.67;16.27;;;;;;;;;;4986051;28;20273;-68
2024/02/17 07:22:12;;;;;;;33.03;14.53;;;;;;;;;;4986809;28;20287;-68
2024/02/17 07:24:37;;;;;;;34.00;13.90;;;;;;;;;;4983680;28;20730;-68
2024/02/17 07:27:02;;;;;;;29.03;13.30;;;;;;;;;;4986296;28;20293;-68
2024/02/17 07:29:27;;;;;;;41.08;14.65;;;;;;;;;;4982589;28;20285;-68
2024/02/17 07:31:52;;;;;;;36.60;15.23;;;;;;;;;;4989386;28;20064;-68
2024/02/17 07:34:18;;;;;;;38.50;15.00;;;;;;;;;;4987966;28;20757;-68
2024/02/17 07:36:43;;;;;;;48.73;14.47;;;;;;;;;;4987853;28;20027;-68
2024/02/17 07:39:08;;;;;;;41.67;16.20;;;;;;;;;;4986839;28;20316;-68
2024/02/17 07:41:33;;;;;;;35.33;13.35;;;;;;;;;;4986718;28;20262;-68
2024/02/17 07:43:58;;;;;;;45.20;13.02;;;;;;;;;;4987894;28;20481;-68
2024/02/17 07:46:24;;;;;;;30.30;14.10;;;;;;;;;;4987739;28;20030;-68
2024/02/17 07:48:50;;;;;;;33.17;12.88;;;;;;;;;;4987496;28;20274;-68
2024/02/17 07:51:15;;;;;;;44.72;14.45;;;;;;;;;;4988155;28;20030;-68
2024/02/17 07:53:40;;;;;;;38.33;15.33;;;;;;;;;;4988511;28;20022;-69
2024/02/17 07:56:05;;;;;;;38.80;13.90;;;;;;;;;;4988124;28;20332;-69
2024/02/17 07:58:31;;;;;;;38.97;15.50;;;;;;;;;;4987204;28;20053;-69
2024/02/17 08:00:56;;;;;;;36.47;16.08;;;;;;;;;;4988926;28;20026;-69
2024/02/17 08:03:22;;;;;;;34.80;15.00;;;;;;;;;;4987472;28;20036;-69
2024/02/17 08:05:48;;;;;;;35.73;12.50;;;;;;;;;;4992154;28;20549;-69
2024/02/17 08:08:13;;;;;;;37.72;15.23;;;;;;;;;;4989947;28;20266;-69
2024/02/17 08:10:38;;;;;;;39.23;14.30;;;;;;;;;;4989553;28;20033;-71
2024/02/17 08:13:03;;;;;;;36.88;14.32;;;;;;;;;;4993601;28;20258;-69
2024/02/17 08:15:28;;;;;;;34.53;12.98;;;;;;;;;;4987529;28;20022;-69
2024/02/17 08:17:54;;;;;;;36.70;13.33;;;;;;;;;;4984802;28;20058;-69
2024/02/17 08:20:19;;;;;;;45.00;14.07;;;;;;;;;;4992530;28;20269;-69
2024/02/17 08:22:44;;;;;;;40.97;15.13;;;;;;;;;;4991270;28;20269;-69
2024/02/17 08:25:09;;;;;;;37.83;13.23;;;;;;;;;;4991822;28;20266;-69
2024/02/17 08:27:38;;;;;;;29.73;13.77;;;;;;;;;;4990115;28;20269;-69
2024/02/17 08:30:03;;;;;;;36.80;13.18;;;;;;;;;;4991637;28;20388;-70
2024/02/17 08:32:28;;;;;;;46.03;14.35;;;;;;;;;;4991450;28;20026;-69
2024/02/17 08:34:54;;;;;;;40.22;16.17;;;;;;;;;;4991676;28;20436;-69
2024/02/17 08:37:19;;;;;;;26.77;12.37;;;;;;;;;;4990886;28;20433;-68
2024/02/17 08:39:48;;;;;;;37.37;12.63;;;;;;;;;;4989463;28;20257;-67
2024/02/17 08:42:13;;;;;;;37.13;12.30;;;;;;;;;;4988653;28;20316;-69
2024/02/17 08:44:38;;;;;;;41.20;13.23;;;;;;;;;;4991692;28;20390;-69
2024/02/17 08:47:03;;;;;;;41.30;14.68;;;;;;;;;;4990671;28;20277;-69
2024/02/17 08:49:29;;;;;;;28.42;12.82;;;;;;;;;;4990668;28;20022;-69
2024/02/17 08:51:54;;;;;;;44.53;13.40;;;;;;;;;;4992163;28;20103;-69
2024/02/17 08:54:21;;;;;;;35.30;14.70;;;;;;;;;;4989684;28;20668;-69
2024/02/17 08:56:47;;;;;;;37.92;14.30;;;;;;;;;;4991871;28;20924;-69
2024/02/17 08:59:12;;;;;;;38.10;11.70;;;;;;;;;;4995032;28;20054;-69
2024/02/17 09:01:37;;;;;;;38.25;12.18;;;;;;;;;;4984679;28;20042;-69
2024/02/17 09:04:03;;;;;;;39.75;12.63;;;;;;;;;;4988298;28;20113;-69
2024/02/17 09:06:28;;;;;;;43.90;13.95;;;;;;;;;;4988290;28;20026;-69
2024/02/17 09:08:53;;;;;;;30.27;11.80;;;;;;;;;;4983804;28;20606;-69
2024/02/17 09:11:18;;;;;;;36.80;11.50;;;;;;;;;;4990641;28;20292;-67
2024/02/17 09:13:46;;;;;;;26.52;13.43;;;;;;;;;;4987323;28;20262;-67
2024/02/17 09:16:11;;;;;;;40.58;12.07;;;;;;;;;;4989492;28;20496;-68
2024/02/17 09:18:36;;;;;;;33.47;13.60;;;;;;;;;;4991525;28;20046;-67
2024/02/17 09:21:02;;;;;;;35.97;12.88;;;;;;;;;;4991071;28;20261;-67
2024/02/17 09:23:27;;;;;;;30.88;12.00;;;;;;;;;;4990143;28;20246;-67
2024/02/17 09:25:52;;;;;;;36.05;12.88;;;;;;;;;;4990001;28;20469;-67
2024/02/17 09:28:17;;;;;;;35.33;12.83;;;;;;;;;;4989099;28;20377;-68
2024/02/17 09:30:42;;;;;;;30.97;11.73;;;;;;;;;;4987823;28;20278;-68
2024/02/17 09:33:07;;;;;;;37.40;12.60;;;;;;;;;;4990332;28;20258;-68
2024/02/17 09:35:33;;;;;;;39.47;17.23;;;;;;;;;;4988273;28;20759;-68
2024/02/17 09:37:58;;;;;;;44.33;14.00;;;;;;;;;;4988642;28;20265;-68
2024/02/17 09:40:23;;;;;;;33.37;12.57;;;;;;;;;;4987603;28;20713;-68
2024/02/17 09:42:50;;;;;;;37.15;13.07;;;;;;;;;;4979968;28;20266;-68
2024/02/17 09:45:15;;;;;;;33.85;12.10;;;;;;;;;;4981527;28;20579;-68
2024/02/17 09:47:42;;;;;;;34.08;11.88;;;;;;;;;;4990211;28;20030;-68
2024/02/17 09:50:10;;;;;;;34.28;12.75;;;;;;;;;;4984318;28;20085;-68
2024/02/17 09:52:36;;;;;;;34.05;11.13;;;;;;;;;;4989137;28;20465;-68
2024/02/17 09:55:01;;;;;;;38.15;10.90;;;;;;;;;;4989800;28;20037;-67
2024/02/17 09:57:26;;;;;;;36.10;12.37;;;;;;;;;;4988579;28;20018;-68
2024/02/17 09:59:51;;;;;;;31.90;12.17;;;;;;;;;;4990826;28;20297;-68
2024/02/17 10:02:17;;;;;;;41.00;14.30;;;;;;;;;;4990207;28;20277;-69
2024/02/17 10:04:55;;;;;;;40.53;15.10;;;;;;;;;;4990497;28;20628;-70
2024/02/17 10:07:20;;;;;;;37.30;13.60;;;;;;;;;;4985863;28;20093;-68
2024/02/17 10:09:46;;;;;;;40.27;16.23;;;;;;;;;;4990530;28;20381;-68
2024/02/17 10:12:13;;;;;;;36.75;14.70;;;;;;;;;;4988279;28;20299;-68
2024/02/17 10:14:39;;;;;;;36.95;14.00;;;;;;;;;;4989764;28;20354;-68
2024/02/17 10:17:05;;;;;;;35.10;13.25;;;;;;;;;;4993029;28;20021;-68
2024/02/17 10:19:31;;;;;;;33.42;12.07;;;;;;;;;;4990097;28;20018;-68
2024/02/17 10:21:56;;;;;;;33.03;13.43;;;;;;;;;;4989635;28;20037;-69
2024/02/17 10:24:21;;;;;;;37.93;13.10;;;;;;;;;;4986892;28;20635;-70
2024/02/17 10:26:53;;;;;;;32.90;12.25;;;;;;;;;;4983594;28;20273;-69
2024/02/17 10:29:19;;;;;;;29.27;11.93;;;;;;;;;;4987414;28;20120;-69
2024/02/17 10:31:46;;;;;;;36.13;12.43;;;;;;;;;;4990220;28;20070;-69
2024/02/17 10:34:11;;;;;;;32.30;12.85;;;;;;;;;;4987870;28;20022;-70
2024/02/17 10:36:37;;;;;;;37.25;14.43;;;;;;;;;;4989859;28;20019;-69
2024/02/17 10:39:03;;;;;;;44.60;16.75;;;;;;;;;;4984320;28;20081;-70
2024/02/17 10:41:30;;;;;;;37.97;16.13;;;;;;;;;;4989399;28;20101;-69
2024/02/17 10:43:55;;;;;;;48.58;18.27;;;;;;;;;;4989660;28;20026;-70
2024/02/17 10:46:27;;;;;;;48.87;18.97;;;;;;;;;;4990097;28;20026;-70
2024/02/17 10:49:12;;;;;;;38.17;15.52;;;;;;;;;;4989354;28;20304;-68
2024/02/17 10:51:53;;;;;;;34.78;14.27;;;;;;;;;;4978408;28;20514;-68
2024/02/17 10:54:24;;;;;;;41.05;14.35;;;;;;;;;;4985303;28;20504;-68
2024/02/17 10:56:50;;;;;;;39.85;14.05;;;;;;;;;;4989461;28;20466;-67
2024/02/17 10:59:16;;;;;;;20.45;7.78;;;;;;;;;;4989832;28;20105;-67
2024/02/17 11:01:41;;;;;;;37.42;13.88;;;;;;;;;;4990246;28;20033;-67
2024/02/17 11:04:07;;;;;;;33.55;13.50;;;;;;;;;;4989545;28;20297;-70
2024/02/17 11:06:34;;;;;;;34.97;14.65;;;;;;;;;;4989890;28;20034;-67
2024/02/17 11:08:59;;;;;;;42.03;14.45;;;;;;;;;;4990181;28;20504;-67
2024/02/17 11:11:25;;;;;;;41.00;14.60;;;;;;;;;;4990185;28;20049;-68
2024/02/17 11:13:51;;;;;;;37.58;11.93;;;;;;;;;;4988449;28;20093;-67
2024/02/17 11:16:17;;;;;;;44.42;15.00;;;;;;;;;;4986226;28;20064;-67
2024/02/17 11:18:44;;;;;;;37.13;14.90;;;;;;;;;;4989861;28;20062;-67
2024/02/17 11:21:10;;;;;;;39.08;16.20;;;;;;;;;;4990212;28;20022;-68
2024/02/17 11:23:39;;;;;;;46.42;16.15;;;;;;;;;;4989493;28;20658;-68
2024/02/17 11:26:17;;;;;;;47.65;15.02;;;;;;;;;;4989927;28;20113;-68
2024/02/17 11:28:43;;;;;;;38.20;15.75;;;;;;;;;;4982734;28;20551;-68
2024/02/17 11:31:09;;;;;;;42.30;16.40;;;;;;;;;;4988138;28;20030;-68
2024/02/17 11:33:34;;;;;;;32.55;13.80;;;;;;;;;;4989340;28;20146;-68
2024/02/17 11:36:10;;;;;;;47.58;14.90;;;;;;;;;;4989857;28;20014;-68
2024/02/17 11:38:36;;;;;;;41.72;15.77;;;;;;;;;;4989702;28;20113;-68
2024/02/17 11:41:01;;;;;;;35.88;14.55;;;;;;;;;;4993014;28;20101;-68
2024/02/17 11:43:27;;;;;;;44.10;13.93;;;;;;;;;;4993469;28;20472;-68
2024/02/17 11:45:54;;;;;;;48.95;15.70;;;;;;;;;;4992690;28;20033;-68
2024/02/17 11:48:19;;;;;;;40.67;14.15;;;;;;;;;;4993665;28;20378;-68
2024/02/17 11:50:45;;;;;;;37.83;13.15;;;;;;;;;;4992985;28;20031;-68
2024/02/17 11:53:10;;;;;;;44.65;15.00;;;;;;;;;;4992940;28;20411;-68
2024/02/17 11:55:35;;;;;;;38.70;13.40;;;;;;;;;;4993337;28;20409;-68
2024/02/17 11:58:00;;;;;;;50.78;16.55;;;;;;;;;;4993390;28;20022;-68
2024/02/17 12:00:26;;;;;;;40.00;15.23;;;;;;;;;;4993406;28;20033;-68
2024/02/17 12:02:54;;;;;;;45.55;15.73;;;;;;;;;;4991877;28;20801;-68
2024/02/17 12:05:19;;;;;;;36.40;13.23;;;;;;;;;;4989958;28;20027;-68
2024/02/17 12:07:45;;;;;;;34.70;14.30;;;;;;;;;;4992731;28;20600;-68
2024/02/17 12:10:12;;;;;;;41.53;14.60;;;;;;;;;;4993227;28;20034;-68
2024/02/17 12:12:39;;;;;;;42.05;13.43;;;;;;;;;;4992338;28;20022;-68
2024/02/17 12:15:05;;;;;;;34.33;11.90;;;;;;;;;;4991484;28;20018;-67
2024/02/17 12:17:30;;;;;;;45.50;14.77;;;;;;;;;;4991436;28;20110;-68
2024/02/17 12:19:55;;;;;;;34.40;13.93;;;;;;;;;;4992478;28;20101;-68
2024/02/17 12:22:21;;;;;;;34.77;14.47;;;;;;;;;;4991935;28;20700;-67
2024/02/17 12:24:46;;;;;;;42.50;13.40;;;;;;;;;;4992603;28;20276;-67
2024/02/17 12:27:12;;;;;;;35.03;13.05;;;;;;;;;;4992744;28;20030;-67
2024/02/17 12:29:37;;;;;;;42.88;14.95;;;;;;;;;;4992019;28;20097;-67
2024/02/17 12:32:02;;;;;;;43.42;12.40;;;;;;;;;;4991596;28;20097;-67
2024/02/17 12:34:29;;;;;;;38.40;11.68;;;;;;;;;;4991019;28;20032;-67
2024/02/17 12:36:54;;;;;;;37.28;12.30;;;;;;;;;;4992032;28;20015;-67
2024/02/17 12:39:22;;;;;;;39.90;12.60;;;;;;;;;;4991929;28;20022;-67
2024/02/17 12:41:57;;;;;;;32.08;12.13;;;;;;;;;;4992182;28;20030;-70
2024/02/17 12:44:24;;;;;;;41.45;11.82;;;;;;;;;;4992371;28;20026;-68
2024/02/17 12:46:49;;;;;;;33.50;11.30;;;;;;;;;;4992300;28;20045;-68
2024/02/17 12:49:17;;;;;;;34.53;11.80;;;;;;;;;;4992516;28;20473;-68
2024/02/17 12:51:47;;;;;;;31.98;11.60;;;;;;;;;;4989914;28;20555;-68
2024/02/17 12:54:15;;;;;;;25.55;10.55;;;;;;;;;;4992415;28;20461;-68
2024/02/17 12:56:40;;;;;;;33.97;10.82;;;;;;;;;;4992058;28;20019;-68
2024/02/17 12:59:05;;;;;;;29.88;10.85;;;;;;;;;;4992548;28;20022;-68
2024/02/17 13:01:31;;;;;;;26.40;10.82;;;;;;;;;;4991947;28;20022;-68
2024/02/17 13:03:56;;;;;;;32.65;9.80;;;;;;;;;;4991934;28;20023;-68
2024/02/17 13:06:21;;;;;;;31.50;10.30;;;;;;;;;;4991921;28;20070;-68
2024/02/17 13:08:46;;;;;;;35.38;10.30;;;;;;;;;;4989229;28;20030;-68
2024/02/17 13:11:12;;;;;;;31.85;12.57;;;;;;;;;;4991867;28;20124;-68
2024/02/17 13:13:37;;;;;;;32.20;10.00;;;;;;;;;;4991424;28;20465;-68
2024/02/17 13:16:03;;;;;;;46.90;11.33;;;;;;;;;;4991951;28;20277;-68
2024/02/17 13:18:29;;;;;;;43.88;11.95;;;;;;;;;;4991866;28;20612;-68
2024/02/17 13:20:54;;;;;;;42.13;12.23;;;;;;;;;;4991421;28;20298;-68
2024/02/17 13:23:19;;;;;;;37.17;11.77;;;;;;;;;;4990602;28;20548;-67
2024/02/17 13:25:45;;;;;;;35.92;12.55;;;;;;;;;;4990694;28;21368;-70
2024/02/17 13:28:10;;;;;;;37.67;12.70;;;;;;;;;;4990047;28;20022;-67
2024/02/17 13:30:35;;;;;;;39.55;12.07;;;;;;;;;;4988373;28;20425;-67
2024/02/17 13:33:01;;;;;;;28.42;11.75;;;;;;;;;;4986044;28;20382;-68
2024/02/17 13:35:26;;;;;;;32.30;11.95;;;;;;;;;;4983481;28;20123;-68
2024/02/17 13:37:51;;;;;;;30.23;10.98;;;;;;;;;;4986168;28;20038;-68
2024/02/17 13:40:17;;;;;;;31.47;11.43;;;;;;;;;;4991194;28;20030;-68
2024/02/17 13:42:43;;;;;;;46.20;11.45;;;;;;;;;;4988994;28;20620;-67
2024/02/17 13:45:08;;;;;;;28.10;11.07;;;;;;;;;;4987346;28;20029;-68
2024/02/17 13:47:37;;;;;;;28.38;11.23;;;;;;;;;;4985238;28;20022;-67
2024/02/17 13:50:08;;;;;;;34.42;11.85;;;;;;;;;;4988989;28;20491;-68
2024/02/17 13:52:33;;;;;;;26.42;10.55;;;;;;;;;;4985193;28;20018;-68
2024/02/17 13:54:59;;;;;;;33.88;11.45;;;;;;;;;;4987182;28;20030;-68
2024/02/17 13:57:25;;;;;;;24.98;11.00;;;;;;;;;;4990923;28;20425;-68
2024/02/17 13:59:51;;;;;;;22.40;9.93;;;;;;;;;;4990399;28;20018;-68
2024/02/17 14:02:16;;;;;;;30.83;10.93;;;;;;;;;;4989902;28;20030;-68
2024/02/17 14:04:42;;;;;;;33.40;11.23;;;;;;;;;;4988125;28;20030;-67
2024/02/17 14:07:07;;;;;;;42.07;12.37;;;;;;;;;;4985324;28;20806;-67
2024/02/17 14:09:32;;;;;;;27.83;11.45;;;;;;;;;;4985042;28;20289;-68